sensor_id;sensor_type;location;lat;lon;timestamp;P1;durP1;ratioP1;P2;durP2;ratioP2
795;SDS011;381;48.770;9.188;2024-03-23T00:56:03;0.50;;;0.50;;
795;SDS011;381;48.770;9.188;2024-03-23T01:01:05;0.50;;;0.50;;
795;SDS011;381;48.770;9.188;2024-03-23T01:06:07;0.50;;;0.50;;
795;SDS011;381;48.770;9.188;2024-03-23T01:11:11;0.50;;;0.50;;
795;SDS011;381;48.770;9.188;2024-03-23T01:16:13;0.60;;;0.60;;
795;SDS011;381;48.770;9.188;2024-03-23T01:21:16;0.50;;;0.50;;
795;SDS011;381;48.770;9.188;2024-03-23T01:26:19;0.50;;;0.50;;
795;SDS011;381;48.770;9.188;2024-03-23T01:31:22;0.50;;;0.50;;
795;SDS011;381;48.770;9.188;2024-03-23T01:36:25;0.60;;;0.60;;
795;SDS011;381;48.770;9.188;2024-03-23T01:41:28;0.50;;;0.50;;
795;SDS011;381;48.770;9.188;2024-03-23T01:46:31;0.50;;;0.50;;
795;SDS011;381;48.770;9.188;2024-03-23T01:51:34;0.40;;;0.40;;
795;SDS011;381;48.770;9.188;2024-03-23T01:56:38;0.50;;;0.50;;
795;SDS011;381;48.770;9.188;2024-03-23T02:01:40;0.50;;;0.50;;
795;SDS011;381;48.770;9.188;2024-03-23T02:06:43;0.50;;;0.50;;
795;SDS011;381;48.770;9.188;2024-03-23T02:11:46;0.50;;;0.50;;
795;SDS011;381;48.770;9.188;2024-03-23T02:16:49;0.50;;;0.50;;
795;SDS011;381;48.770;9.188;2024-03-23T02:21:51;0.50;;;0.50;;
795;SDS011;381;48.770;9.188;2024-03-23T02:26:55;0.40;;;0.40;;
795;SDS011;381;48.770;9.188;2024-03-23T02:31:57;0.50;;;0.50;;
795;SDS011;381;48.770;9.188;2024-03-23T02:37:00;0.50;;;0.50;;
795;SDS011;381;48.770;9.188;2024-03-23T02:42:04;0.50;;;0.50;;
795;SDS011;381;48.770;9.188;2024-03-23T02:47:06;0.40;;;0.40;;
795;SDS011;381;48.770;9.188;2024-03-23T02:52:09;0.40;;;0.40;;
795;SDS011;381;48.770;9.188;2024-03-23T02:57:12;0.70;;;0.70;;
795;SDS011;381;48.770;9.188;2024-03-23T03:02:15;0.60;;;0.60;;
795;SDS011;381;48.770;9.188;2024-03-23T03:07:17;0.63;;;0.63;;
795;SDS011;381;48.770;9.188;2024-03-23T03:12:21;0.80;;;0.80;;
795;SDS011;381;48.770;9.188;2024-03-23T03:17:24;0.70;;;0.70;;
795;SDS011;381;48.770;9.188;2024-03-23T03:22:26;0.70;;;0.70;;
795;SDS011;381;48.770;9.188;2024-03-23T03:27:30;0.70;;;0.70;;
795;SDS011;381;48.770;9.188;2024-03-23T03:32:32;0.67;;;0.67;;
795;SDS011;381;48.770;9.188;2024-03-23T03:37:35;0.80;;;0.80;;
795;SDS011;381;48.770;9.188;2024-03-23T03:42:38;0.60;;;0.60;;
795;SDS011;381;48.770;9.188;2024-03-23T03:47:41;0.60;;;0.60;;
795;SDS011;381;48.770;9.188;2024-03-23T03:52:43;0.70;;;0.70;;
795;SDS011;381;48.770;9.188;2024-03-23T03:57:47;0.70;;;0.70;;
795;SDS011;381;48.770;9.188;2024-03-23T04:02:49;0.90;;;0.90;;
795;SDS011;381;48.770;9.188;2024-03-23T04:07:51;0.90;;;0.90;;
795;SDS011;381;48.770;9.188;2024-03-23T04:12:56;0.70;;;0.70;;
795;SDS011;381;48.770;9.188;2024-03-23T04:17:58;0.90;;;0.90;;
795;SDS011;381;48.770;9.188;2024-03-23T04:23:00;0.90;;;0.90;;
795;SDS011;381;48.770;9.188;2024-03-23T04:28:04;0.70;;;0.70;;
795;SDS011;381;48.770;9.188;2024-03-23T04:33:07;0.83;;;0.83;;
795;SDS011;381;48.770;9.188;2024-03-23T04:38:09;0.83;;;0.83;;
795;SDS011;381;48.770;9.188;2024-03-23T04:43:13;0.70;;;0.70;;
795;SDS011;381;48.770;9.188;2024-03-23T04:48:15;0.90;;;0.90;;
795;SDS011;381;48.770;9.188;2024-03-23T04:53:18;0.90;;;0.90;;
795;SDS011;381;48.770;9.188;2024-03-23T04:58:21;1.00;;;1.00;;
795;SDS011;381;48.770;9.188;2024-03-23T05:03:24;1.10;;;1.10;;
795;SDS011;381;48.770;9.188;2024-03-23T05:08:26;2.10;;;2.10;;
795;SDS011;381;48.770;9.188;2024-03-23T05:13:31;1.87;;;1.87;;
795;SDS011;381;48.770;9.188;2024-03-23T05:18:33;2.50;;;2.50;;
795;SDS011;381;48.770;9.188;2024-03-23T05:23:35;2.20;;;2.20;;
795;SDS011;381;48.770;9.188;2024-03-23T05:28:40;2.43;;;2.43;;
795;SDS011;381;48.770;9.188;2024-03-23T05:33:42;2.77;;;2.77;;
795;SDS011;381;48.770;9.188;2024-03-23T05:38:45;3.30;;;3.30;;
795;SDS011;381;48.770;9.188;2024-03-23T05:43:49;3.70;;;3.70;;
795;SDS011;381;48.770;9.188;2024-03-23T05:48:52;3.07;;;3.07;;
795;SDS011;381;48.770;9.188;2024-03-23T05:54:01;3.70;;;3.70;;
795;SDS011;381;48.770;9.188;2024-03-23T05:59:04;3.90;;;3.90;;
795;SDS011;381;48.770;9.188;2024-03-23T06:04:07;3.80;;;3.80;;
795;SDS011;381;48.770;9.188;2024-03-23T06:09:09;3.70;;;3.70;;
795;SDS011;381;48.770;9.188;2024-03-23T06:14:13;3.83;;;3.83;;
795;SDS011;381;48.770;9.188;2024-03-23T06:19:15;3.20;;;3.20;;
795;SDS011;381;48.770;9.188;2024-03-23T06:24:18;3.70;;;3.70;;
795;SDS011;381;48.770;9.188;2024-03-23T06:29:21;3.40;;;3.40;;
795;SDS011;381;48.770;9.188;2024-03-23T06:34:24;2.53;;;2.53;;
795;SDS011;381;48.770;9.188;2024-03-23T06:39:26;2.33;;;2.33;;
795;SDS011;381;48.770;9.188;2024-03-23T06:44:30;1.60;;;1.60;;
795;SDS011;381;48.770;9.188;2024-03-23T06:49:32;1.57;;;1.57;;
795;SDS011;381;48.770;9.188;2024-03-23T06:54:34;1.20;;;1.20;;
795;SDS011;381;48.770;9.188;2024-03-23T06:59:38;0.93;;;0.93;;
795;SDS011;381;48.770;9.188;2024-03-23T07:04:40;0.80;;;0.80;;
795;SDS011;381;48.770;9.188;2024-03-23T07:09:43;0.70;;;0.70;;
795;SDS011;381;48.770;9.188;2024-03-23T07:14:47;0.70;;;0.70;;
795;SDS011;381;48.770;9.188;2024-03-23T07:19:49;0.80;;;0.80;;
795;SDS011;381;48.770;9.188;2024-03-23T07:24:51;0.90;;;0.90;;
795;SDS011;381;48.770;9.188;2024-03-23T07:29:55;1.00;;;1.00;;
795;SDS011;381;48.770;9.188;2024-03-23T07:34:57;0.80;;;0.80;;
795;SDS011;381;48.770;9.188;2024-03-23T07:39:59;0.60;;;0.60;;
795;SDS011;381;48.770;9.188;2024-03-23T07:45:03;0.70;;;0.70;;
795;SDS011;381;48.770;9.188;2024-03-23T07:50:07;0.60;;;0.60;;
795;SDS011;381;48.770;9.188;2024-03-23T07:55:10;0.70;;;0.70;;
795;SDS011;381;48.770;9.188;2024-03-23T08:00:14;0.90;;;0.90;;
795;SDS011;381;48.770;9.188;2024-03-23T08:05:17;1.20;;;1.20;;
795;SDS011;381;48.770;9.188;2024-03-23T08:10:19;0.80;;;0.80;;
795;SDS011;381;48.770;9.188;2024-03-23T08:15:23;0.87;;;0.87;;
795;SDS011;381;48.770;9.188;2024-03-23T08:20:25;0.80;;;0.80;;
795;SDS011;381;48.770;9.188;2024-03-23T08:25:30;0.80;;;0.80;;
795;SDS011;381;48.770;9.188;2024-03-23T08:30:34;0.57;;;0.57;;
795;SDS011;381;48.770;9.188;2024-03-23T08:35:38;0.50;;;0.50;;
795;SDS011;381;48.770;9.188;2024-03-23T08:40:40;0.40;;;0.40;;
795;SDS011;381;48.770;9.188;2024-03-23T08:45:45;0.40;;;0.40;;
795;SDS011;381;48.770;9.188;2024-03-23T08:50:47;0.50;;;0.50;;
795;SDS011;381;48.770;9.188;2024-03-23T08:55:59;0.40;;;0.40;;
795;SDS011;381;48.770;9.188;2024-03-23T09:01:06;0.40;;;0.40;;
795;SDS011;381;48.770;9.188;2024-03-23T09:06:10;0.30;;;0.30;;
795;SDS011;381;48.770;9.188;2024-03-23T09:11:13;0.40;;;0.40;;
795;SDS011;381;48.770;9.188;2024-03-23T09:16:17;0.33;;;0.33;;
795;SDS011;381;48.770;9.188;2024-03-23T09:21:19;0.40;;;0.40;;
795;SDS011;381;48.770;9.188;2024-03-23T09:26:21;0.10;;;0.10;;
795;SDS011;381;48.770;9.188;2024-03-23T09:31:25;0.30;;;0.30;;
795;SDS011;381;48.770;9.188;2024-03-23T09:36:28;0.30;;;0.30;;
795;SDS011;381;48.770;9.188;2024-03-23T09:41:30;0.40;;;0.40;;
795;SDS011;381;48.770;9.188;2024-03-23T09:46:34;0.40;;;0.40;;
795;SDS011;381;48.770;9.188;2024-03-23T09:51:37;0.40;;;0.40;;
795;SDS011;381;48.770;9.188;2024-03-23T09:56:39;0.40;;;0.40;;
795;SDS011;381;48.770;9.188;2024-03-23T10:01:43;0.30;;;0.30;;
795;SDS011;381;48.770;9.188;2024-03-23T10:06:45;0.40;;;0.40;;
795;SDS011;381;48.770;9.188;2024-03-23T10:11:48;0.40;;;0.40;;
795;SDS011;381;48.770;9.188;2024-03-23T10:16:52;0.30;;;0.30;;
795;SDS011;381;48.770;9.188;2024-03-23T10:21:55;0.30;;;0.30;;
795;SDS011;381;48.770;9.188;2024-03-23T10:26:58;0.30;;;0.30;;
795;SDS011;381;48.770;9.188;2024-03-23T10:32:11;0.30;;;0.30;;
795;SDS011;381;48.770;9.188;2024-03-23T10:37:14;0.50;;;0.50;;
795;SDS011;381;48.770;9.188;2024-03-23T10:42:17;0.40;;;0.40;;
795;SDS011;381;48.770;9.188;2024-03-23T10:47:21;0.40;;;0.40;;
795;SDS011;381;48.770;9.188;2024-03-23T10:52:23;0.30;;;0.30;;
795;SDS011;381;48.770;9.188;2024-03-23T10:57:27;0.40;;;0.40;;
795;SDS011;381;48.770;9.188;2024-03-23T11:02:38;0.40;;;0.40;;
795;SDS011;381;48.770;9.188;2024-03-23T11:07:41;0.50;;;0.50;;
795;SDS011;381;48.770;9.188;2024-03-23T11:12:52;1.00;;;1.00;;
795;SDS011;381;48.770;9.188;2024-03-23T11:18:05;1.00;;;1.00;;
795;SDS011;381;48.770;9.188;2024-03-23T11:23:09;0.70;;;0.70;;
795;SDS011;381;48.770;9.188;2024-03-23T11:28:29;0.70;;;0.70;;
795;SDS011;381;48.770;9.188;2024-03-23T11:33:33;0.43;;;0.43;;
795;SDS011;381;48.770;9.188;2024-03-23T11:38:36;0.57;;;0.57;;
795;SDS011;381;48.770;9.188;2024-03-23T11:43:39;0.70;;;0.70;;
795;SDS011;381;48.770;9.188;2024-03-23T11:48:49;0.60;;;0.60;;
795;SDS011;381;48.770;9.188;2024-03-23T11:53:51;0.40;;;0.40;;
795;SDS011;381;48.770;9.188;2024-03-23T11:58:54;0.20;;;0.20;;
795;SDS011;381;48.770;9.188;2024-03-23T12:03:57;0.50;;;0.50;;
795;SDS011;381;48.770;9.188;2024-03-23T12:09:05;0.47;;;0.47;;
795;SDS011;381;48.770;9.188;2024-03-23T12:14:08;0.40;;;0.40;;
795;SDS011;381;48.770;9.188;2024-03-23T12:19:12;0.50;;;0.50;;
795;SDS011;381;48.770;9.188;2024-03-23T12:24:14;0.40;;;0.40;;
795;SDS011;381;48.770;9.188;2024-03-23T12:29:16;0.13;;;0.13;;
795;SDS011;381;48.770;9.188;2024-03-23T12:34:20;0.40;;;0.40;;
795;SDS011;381;48.770;9.188;2024-03-23T12:39:23;0.40;;;0.40;;
795;SDS011;381;48.770;9.188;2024-03-23T12:44:25;0.40;;;0.40;;
795;SDS011;381;48.770;9.188;2024-03-23T12:49:29;0.30;;;0.30;;
795;SDS011;381;48.770;9.188;2024-03-23T12:54:32;0.30;;;0.30;;
795;SDS011;381;48.770;9.188;2024-03-23T12:59:35;0.50;;;0.50;;
795;SDS011;381;48.770;9.188;2024-03-23T13:04:39;0.47;;;0.47;;
795;SDS011;381;48.770;9.188;2024-03-23T13:09:41;0.40;;;0.40;;
795;SDS011;381;48.770;9.188;2024-03-23T13:14:43;0.50;;;0.50;;
795;SDS011;381;48.770;9.188;2024-03-23T13:19:47;0.30;;;0.30;;
795;SDS011;381;48.770;9.188;2024-03-23T13:24:50;0.40;;;0.40;;
795;SDS011;381;48.770;9.188;2024-03-23T13:29:52;0.50;;;0.50;;
795;SDS011;381;48.770;9.188;2024-03-23T13:34:56;0.40;;;0.40;;
795;SDS011;381;48.770;9.188;2024-03-23T13:39:58;0.50;;;0.50;;
795;SDS011;381;48.770;9.188;2024-03-23T13:45:01;0.40;;;0.40;;
795;SDS011;381;48.770;9.188;2024-03-23T13:50:05;0.50;;;0.50;;
795;SDS011;381;48.770;9.188;2024-03-23T13:55:08;0.40;;;0.40;;
795;SDS011;381;48.770;9.188;2024-03-23T14:00:13;0.40;;;0.40;;
795;SDS011;381;48.770;9.188;2024-03-23T14:05:18;0.40;;;0.40;;
795;SDS011;381;48.770;9.188;2024-03-23T14:10:20;0.40;;;0.40;;
795;SDS011;381;48.770;9.188;2024-03-23T14:15:22;0.30;;;0.30;;
795;SDS011;381;48.770;9.188;2024-03-23T14:20:26;0.50;;;0.50;;
795;SDS011;381;48.770;9.188;2024-03-23T14:25:28;0.80;;;0.80;;
795;SDS011;381;48.770;9.188;2024-03-23T14:30:31;1.00;;;1.00;;
795;SDS011;381;48.770;9.188;2024-03-23T14:35:34;1.40;;;1.40;;
795;SDS011;381;48.770;9.188;2024-03-23T14:40:37;1.07;;;1.07;;
795;SDS011;381;48.770;9.188;2024-03-23T14:45:45;1.07;;;1.07;;
795;SDS011;381;48.770;9.188;2024-03-23T14:51:07;1.30;;;1.30;;
795;SDS011;381;48.770;9.188;2024-03-23T14:56:09;0.70;;;0.70;;
795;SDS011;381;48.770;9.188;2024-03-23T15:01:14;1.10;;;1.10;;
795;SDS011;381;48.770;9.188;2024-03-23T15:06:17;0.90;;;0.90;;
795;SDS011;381;48.770;9.188;2024-03-23T15:11:20;0.60;;;0.60;;
795;SDS011;381;48.770;9.188;2024-03-23T15:16:22;0.90;;;0.90;;
795;SDS011;381;48.770;9.188;2024-03-23T15:21:26;0.70;;;0.70;;
795;SDS011;381;48.770;9.188;2024-03-23T15:26:28;0.70;;;0.70;;
795;SDS011;381;48.770;9.188;2024-03-23T15:31:30;0.70;;;0.70;;
795;SDS011;381;48.770;9.188;2024-03-23T15:36:35;0.60;;;0.60;;
795;SDS011;381;48.770;9.188;2024-03-23T15:41:39;0.50;;;0.50;;
795;SDS011;381;48.770;9.188;2024-03-23T15:46:41;0.60;;;0.60;;
795;SDS011;381;48.770;9.188;2024-03-23T15:51:45;0.50;;;0.50;;
795;SDS011;381;48.770;9.188;2024-03-23T15:56:47;0.70;;;0.70;;
795;SDS011;381;48.770;9.188;2024-03-23T16:01:49;0.50;;;0.50;;
795;SDS011;381;48.770;9.188;2024-03-23T16:06:53;0.50;;;0.50;;
795;SDS011;381;48.770;9.188;2024-03-23T16:11:55;0.60;;;0.60;;
795;SDS011;381;48.770;9.188;2024-03-23T16:16:57;0.50;;;0.50;;
795;SDS011;381;48.770;9.188;2024-03-23T16:22:01;0.60;;;0.60;;
795;SDS011;381;48.770;9.188;2024-03-23T16:27:04;0.33;;;0.33;;
795;SDS011;381;48.770;9.188;2024-03-23T16:32:06;0.43;;;0.43;;
795;SDS011;381;48.770;9.188;2024-03-23T16:37:10;0.70;;;0.70;;
795;SDS011;381;48.770;9.188;2024-03-23T16:42:12;0.60;;;0.60;;
795;SDS011;381;48.770;9.188;2024-03-23T16:47:14;0.70;;;0.70;;
795;SDS011;381;48.770;9.188;2024-03-23T16:52:18;0.60;;;0.60;;
795;SDS011;381;48.770;9.188;2024-03-23T16:57:21;0.80;;;0.80;;
795;SDS011;381;48.770;9.188;2024-03-23T17:02:23;0.80;;;0.80;;
795;SDS011;381;48.770;9.188;2024-03-23T17:07:27;0.60;;;0.60;;
795;SDS011;381;48.770;9.188;2024-03-23T17:12:29;0.80;;;0.80;;
795;SDS011;381;48.770;9.188;2024-03-23T17:17:32;0.80;;;0.80;;
795;SDS011;381;48.770;9.188;2024-03-23T17:22:35;0.70;;;0.70;;
795;SDS011;381;48.770;9.188;2024-03-23T17:27:38;0.70;;;0.70;;
795;SDS011;381;48.770;9.188;2024-03-23T17:32:40;0.70;;;0.70;;
795;SDS011;381;48.770;9.188;2024-03-23T17:37:44;0.60;;;0.60;;
795;SDS011;381;48.770;9.188;2024-03-23T17:42:47;0.40;;;0.40;;
795;SDS011;381;48.770;9.188;2024-03-23T17:47:49;1.07;;;1.07;;
795;SDS011;381;48.770;9.188;2024-03-23T17:52:53;2.80;;;2.80;;
795;SDS011;381;48.770;9.188;2024-03-23T17:57:56;3.00;;;3.00;;
795;SDS011;381;48.770;9.188;2024-03-23T18:02:59;3.10;;;3.10;;
795;SDS011;381;48.770;9.188;2024-03-23T18:08:05;3.60;;;3.60;;
795;SDS011;381;48.770;9.188;2024-03-23T18:13:09;4.10;;;4.10;;
795;SDS011;381;48.770;9.188;2024-03-23T18:18:11;4.67;;;4.67;;
795;SDS011;381;48.770;9.188;2024-03-23T18:23:15;3.80;;;3.80;;
795;SDS011;381;48.770;9.188;2024-03-23T18:28:18;3.90;;;3.90;;
795;SDS011;381;48.770;9.188;2024-03-23T18:33:21;3.80;;;3.80;;
795;SDS011;381;48.770;9.188;2024-03-23T18:38:24;3.80;;;3.80;;
795;SDS011;381;48.770;9.188;2024-03-23T18:43:27;3.20;;;3.20;;
795;SDS011;381;48.770;9.188;2024-03-23T18:48:29;3.50;;;3.50;;
795;SDS011;381;48.770;9.188;2024-03-23T18:53:33;3.00;;;3.00;;
795;SDS011;381;48.770;9.188;2024-03-23T18:58:35;2.87;;;2.87;;
795;SDS011;381;48.770;9.188;2024-03-23T19:03:38;3.13;;;3.13;;
795;SDS011;381;48.770;9.188;2024-03-23T19:08:41;3.07;;;3.07;;
795;SDS011;381;48.770;9.188;2024-03-23T19:13:44;2.03;;;2.03;;
795;SDS011;381;48.770;9.188;2024-03-23T19:18:46;2.40;;;2.40;;
795;SDS011;381;48.770;9.188;2024-03-23T19:23:51;2.37;;;2.37;;
795;SDS011;381;48.770;9.188;2024-03-23T19:28:53;1.80;;;1.80;;
795;SDS011;381;48.770;9.188;2024-03-23T19:33:56;1.90;;;1.90;;
795;SDS011;381;48.770;9.188;2024-03-23T19:38:59;1.40;;;1.40;;
795;SDS011;381;48.770;9.188;2024-03-23T19:44:02;1.60;;;1.60;;
795;SDS011;381;48.770;9.188;2024-03-23T19:49:04;1.50;;;1.50;;
795;SDS011;381;48.770;9.188;2024-03-23T19:54:08;1.50;;;1.50;;
795;SDS011;381;48.770;9.188;2024-03-23T19:59:11;1.10;;;1.10;;
795;SDS011;381;48.770;9.188;2024-03-23T20:04:14;1.17;;;1.17;;
795;SDS011;381;48.770;9.188;2024-03-23T20:09:17;1.20;;;1.20;;
795;SDS011;381;48.770;9.188;2024-03-23T20:14:20;1.10;;;1.10;;
795;SDS011;381;48.770;9.188;2024-03-23T20:19:22;0.83;;;0.83;;
795;SDS011;381;48.770;9.188;2024-03-23T20:24:26;1.03;;;1.03;;
795;SDS011;381;48.770;9.188;2024-03-23T20:29:28;0.80;;;0.80;;
795;SDS011;381;48.770;9.188;2024-03-23T20:34:31;0.70;;;0.70;;
795;SDS011;381;48.770;9.188;2024-03-23T20:39:35;0.10;;;0.10;;
795;SDS011;381;48.770;9.188;2024-03-23T20:44:37;0.80;;;0.80;;
795;SDS011;381;48.770;9.188;2024-03-23T20:49:40;0.63;;;0.63;;
795;SDS011;381;48.770;9.188;2024-03-23T20:54:43;0.50;;;0.50;;
795;SDS011;381;48.770;9.188;2024-03-23T20:59:46;0.80;;;0.80;;
795;SDS011;381;48.770;9.188;2024-03-23T21:04:48;0.63;;;0.63;;
795;SDS011;381;48.770;9.188;2024-03-23T21:09:52;0.70;;;0.70;;
795;SDS011;381;48.770;9.188;2024-03-23T21:14:54;0.70;;;0.70;;
795;SDS011;381;48.770;9.188;2024-03-23T21:19:57;0.83;;;0.83;;
795;SDS011;381;48.770;9.188;2024-03-23T21:25:01;0.80;;;0.80;;
795;SDS011;381;48.770;9.188;2024-03-23T21:30:04;0.60;;;0.60;;
795;SDS011;381;48.770;9.188;2024-03-23T21:35:07;0.60;;;0.60;;
795;SDS011;381;48.770;9.188;2024-03-23T21:40:11;0.70;;;0.70;;
795;SDS011;381;48.770;9.188;2024-03-23T21:45:13;0.50;;;0.50;;
795;SDS011;381;48.770;9.188;2024-03-23T21:50:16;0.60;;;0.60;;
795;SDS011;381;48.770;9.188;2024-03-23T21:55:19;0.60;;;0.60;;
795;SDS011;381;48.770;9.188;2024-03-23T22:00:22;0.67;;;0.67;;
795;SDS011;381;48.770;9.188;2024-03-23T22:05:24;0.70;;;0.70;;
795;SDS011;381;48.770;9.188;2024-03-23T22:10:28;0.70;;;0.70;;
795;SDS011;381;48.770;9.188;2024-03-23T22:15:32;0.70;;;0.70;;
795;SDS011;381;48.770;9.188;2024-03-23T22:20:35;0.73;;;0.73;;
795;SDS011;381;48.770;9.188;2024-03-23T22:25:40;0.80;;;0.80;;
795;SDS011;381;48.770;9.188;2024-03-23T22:30:55;0.50;;;0.50;;
795;SDS011;381;48.770;9.188;2024-03-23T22:35:58;0.50;;;0.50;;
795;SDS011;381;48.770;9.188;2024-03-23T22:41:03;0.40;;;0.40;;
795;SDS011;381;48.770;9.188;2024-03-23T22:46:06;0.60;;;0.60;;
795;SDS011;381;48.770;9.188;2024-03-23T22:51:11;0.50;;;0.50;;
795;SDS011;381;48.770;9.188;2024-03-23T22:56:15;0.30;;;0.30;;
795;SDS011;381;48.770;9.188;2024-03-23T23:01:19;0.50;;;0.50;;
795;SDS011;381;48.770;9.188;2024-03-23T23:06:21;0.57;;;0.57;;
795;SDS011;381;48.770;9.188;2024-03-23T23:11:25;0.50;;;0.50;;
795;SDS011;381;48.770;9.188;2024-03-23T23:16:27;0.50;;;0.50;;
795;SDS011;381;48.770;9.188;2024-03-23T23:21:30;0.60;;;0.60;;
795;SDS011;381;48.770;9.188;2024-03-23T23:26:34;0.70;;;0.70;;
795;SDS011;381;48.770;9.188;2024-03-23T23:31:36;0.60;;;0.60;;
795;SDS011;381;48.770;9.188;2024-03-23T23:36:38;0.50;;;0.50;;
795;SDS011;381;48.770;9.188;2024-03-23T23:41:42;0.50;;;0.50;;
795;SDS011;381;48.770;9.188;2024-03-23T23:46:44;0.50;;;0.50;;
795;SDS011;381;48.770;9.188;2024-03-23T23:51:47;0.60;;;0.60;;
795;SDS011;381;48.770;9.188;2024-03-23T23:56:50;0.50;;;0.50;;
